Time;durP1;ratioP1;P1;durP2;ratioP2;P2;SDS_P1;SDS_P2;PMS_P1;PMS_P2;Temp;Humidity;BMP_temperature;BMP_pressure;BME280_temperature;BME280_humidity;BME280_pressure;Samples;Min_cycle;Max_cycle;Signal;HPM_P1;HPM_P2
2021/12/22 00:02:15;;;;;;;30.92;16.40;;;-3.20;99.90;;;;;;5076457;28;20453;-74
2021/12/22 00:04:45;;;;;;;29.50;16.80;;;-3.20;99.90;;;;;;5093510;28;20048;-73
2021/12/22 00:07:12;;;;;;;27.83;15.90;;;-3.20;99.90;;;;;;5092959;28;20129;-74
2021/12/22 00:09:38;;;;;;;34.33;16.88;;;-3.30;99.90;;;;;;5076312;28;20057;-74
2021/12/22 00:12:04;;;;;;;30.77;15.70;;;-3.30;99.90;;;;;;5075851;28;20050;-72
2021/12/22 00:14:30;;;;;;;28.83;15.50;;;-3.30;99.90;;;;;;5076521;28;20047;-73
2021/12/22 00:16:55;;;;;;;30.48;17.25;;;-3.30;99.90;;;;;;5076017;28;20432;-73
2021/12/22 00:19:21;;;;;;;27.70;15.80;;;-3.30;99.90;;;;;;5092137;28;20458;-74
2021/12/22 00:21:47;;;;;;;27.15;14.55;;;-3.30;99.90;;;;;;5075983;28;20079;-73
2021/12/22 00:24:12;;;;;;;27.77;14.70;;;-3.30;99.90;;;;;;5075924;28;20047;-72
2021/12/22 00:26:38;;;;;;;28.70;15.63;;;-3.40;99.90;;;;;;5072859;28;20044;-72
2021/12/22 00:29:05;;;;;;;24.67;14.90;;;-3.30;99.90;;;;;;5076345;28;20043;-73
2021/12/22 00:31:39;;;;;;;27.23;15.23;;;-3.30;99.90;;;;;;5093053;28;20137;-73
2021/12/22 00:34:06;;;;;;;25.98;15.13;;;-3.30;99.90;;;;;;5092628;28;20044;-72
2021/12/22 00:36:31;;;;;;;25.67;15.73;;;-3.30;99.90;;;;;;5076024;28;20043;-73
2021/12/22 00:38:57;;;;;;;22.60;14.77;;;-3.30;99.90;;;;;;5075773;28;20055;-73
2021/12/22 00:41:23;;;;;;;26.75;14.93;;;-3.30;99.90;;;;;;5092457;28;20067;-75
2021/12/22 00:43:50;;;;;;;28.63;14.60;;;-3.30;99.90;;;;;;5075905;28;20122;-74
2021/12/22 00:46:16;;;;;;;24.48;14.45;;;-3.40;99.90;;;;;;5092870;28;20043;-73
2021/12/22 00:48:42;;;;;;;24.73;15.48;;;-3.40;99.90;;;;;;5075372;28;20043;-73
2021/12/22 00:51:07;;;;;;;26.70;15.15;;;-3.40;99.90;;;;;;5091828;28;20032;-73
2021/12/22 00:53:33;;;;;;;28.42;15.15;;;-3.40;99.90;;;;;;5092616;28;20050;-73
2021/12/22 00:55:59;;;;;;;25.45;14.90;;;-3.50;99.90;;;;;;5092232;28;20126;-74
2021/12/22 00:58:25;;;;;;;26.65;15.35;;;-3.40;99.90;;;;;;5093148;28;20119;-72
2021/12/22 01:00:51;;;;;;;24.15;14.77;;;-3.40;99.90;;;;;;5092507;28;20048;-72
2021/12/22 01:03:18;;;;;;;28.23;15.32;;;-3.40;99.90;;;;;;5075480;28;20036;-74
2021/12/22 01:05:44;;;;;;;25.88;15.52;;;-3.50;99.90;;;;;;5075331;28;20040;-73
2021/12/22 01:08:10;;;;;;;29.08;15.50;;;-3.50;99.90;;;;;;5091954;28;20497;-73
2021/12/22 01:10:36;;;;;;;26.77;16.10;;;-3.50;99.90;;;;;;5092493;28;20084;-74
2021/12/22 01:13:04;;;;;;;27.83;15.60;;;-3.50;99.90;;;;;;5092574;28;20126;-73
2021/12/22 01:15:31;;;;;;;27.40;15.38;;;-3.60;99.90;;;;;;5092576;28;20140;-73
2021/12/22 01:18:04;;;;;;;25.23;14.90;;;-3.60;99.90;;;;;;5093990;28;20047;-72
2021/12/22 01:20:37;;;;;;;25.58;14.23;;;-3.60;99.90;;;;;;5096438;28;20126;-74
2021/12/22 01:23:03;;;;;;;25.27;15.27;;;-3.60;99.90;;;;;;5095776;28;20044;-73
2021/12/22 01:25:36;;;;;;;24.50;15.55;;;-3.60;99.90;;;;;;5096416;28;20493;-73
2021/12/22 01:28:02;;;;;;;26.58;15.27;;;-3.60;99.90;;;;;;5096781;28;20047;-73
2021/12/22 01:30:30;;;;;;;24.15;14.48;;;-3.60;99.90;;;;;;5096629;28;20048;-73
2021/12/22 01:32:58;;;;;;;24.85;15.73;;;-3.60;99.90;;;;;;5096389;28;20071;-74
2021/12/22 01:35:28;;;;;;;24.95;15.02;;;-3.60;99.90;;;;;;5079023;28;20032;-73
2021/12/22 01:37:54;;;;;;;25.70;15.73;;;-3.60;99.90;;;;;;5095960;28;20055;-73
2021/12/22 01:40:21;;;;;;;27.85;15.77;;;-3.60;99.90;;;;;;5096646;28;20097;-73
2021/12/22 01:42:47;;;;;;;25.48;14.80;;;-3.60;99.90;;;;;;5094989;28;20054;-73
2021/12/22 01:45:48;;;;;;;26.58;15.57;;;-3.60;99.90;;;;;;5078697;28;20051;-73
2021/12/22 01:51:06;;;;;;;26.85;15.20;;;-3.70;99.90;;;;;;5095716;28;20485;-73
2021/12/22 01:53:40;;;;;;;25.50;15.25;;;-3.70;99.90;;;;;;5095924;28;20043;-73
2021/12/22 01:56:25;;;;;;;26.77;16.30;;;-3.70;99.90;;;;;;5095767;28;20044;-73
2021/12/22 01:58:54;;;;;;;27.75;16.45;;;-3.70;99.90;;;;;;5078904;28;20515;-74
2021/12/22 02:01:20;;;;;;;28.73;15.73;;;-3.70;99.90;;;;;;5095593;28;20478;-73
2021/12/22 02:03:47;;;;;;;27.77;16.50;;;-3.70;99.90;;;;;;5095792;28;20044;-75
2021/12/22 02:06:14;;;;;;;27.13;15.80;;;-3.70;99.90;;;;;;5078771;28;20083;-73
2021/12/22 02:08:41;;;;;;;26.45;15.52;;;-3.80;99.90;;;;;;5095045;28;20098;-73
2021/12/22 02:11:08;;;;;;;28.98;16.77;;;-3.80;99.90;;;;;;5095584;28;20044;-73
2021/12/22 02:13:38;;;;;;;27.50;16.38;;;-3.80;99.90;;;;;;5095650;28;20046;-74
2021/12/22 02:16:08;;;;;;;26.60;15.23;;;-3.80;99.90;;;;;;5078486;28;20471;-72
2021/12/22 02:18:42;;;;;;;29.05;17.45;;;-3.70;99.90;;;;;;5095367;28;20114;-74
2021/12/22 02:21:09;;;;;;;31.95;16.83;;;-3.70;99.90;;;;;;5094862;28;20040;-72
2021/12/22 02:23:35;;;;;;;28.63;17.00;;;-3.80;99.90;;;;;;5094627;28;20595;-74
2021/12/22 02:26:10;;;;;;;25.90;16.13;;;-3.80;99.90;;;;;;5078532;28;20036;-72
2021/12/22 02:28:40;;;;;;;31.45;16.70;;;-3.80;99.90;;;;;;5095175;28;20044;-74
2021/12/22 02:31:05;;;;;;;29.83;17.13;;;-3.80;99.90;;;;;;5078437;28;20036;-73
2021/12/22 02:33:39;;;;;;;29.75;17.77;;;-3.80;99.90;;;;;;5095058;28;20446;-74
2021/12/22 02:36:09;;;;;;;27.33;15.73;;;-3.80;99.90;;;;;;5077514;28;20040;-73
2021/12/22 02:38:47;;;;;;;32.60;16.88;;;-3.80;99.90;;;;;;5094217;28;20076;-74
2021/12/22 02:41:15;;;;;;;28.48;16.80;;;-3.80;99.90;;;;;;5078021;28;20501;-74
2021/12/22 02:43:46;;;;;;;30.10;16.77;;;-3.80;99.90;;;;;;5077730;28;20135;-73
2021/12/22 02:46:13;;;;;;;31.73;17.52;;;-3.80;99.90;;;;;;5094566;28;20490;-75
2021/12/22 02:48:39;;;;;;;29.10;18.00;;;-3.80;99.90;;;;;;5094969;28;20098;-74
2021/12/22 02:51:05;;;;;;;33.35;17.65;;;-3.80;99.90;;;;;;5094820;28;20040;-73
2021/12/22 02:53:44;;;;;;;30.08;17.08;;;-3.80;99.90;;;;;;5095205;28;20360;-73
2021/12/22 02:59:05;;;;;;;34.75;18.67;;;-3.80;99.90;;;;;;5094600;28;20135;-74
2021/12/22 03:04:11;;;;;;;34.70;18.67;;;-3.90;99.90;;;;;;5094313;28;20474;-73
2021/12/22 03:06:56;;;;;;;36.75;20.17;;;-3.90;99.90;;;;;;5094736;28;20032;-73
2021/12/22 03:09:28;;;;;;;36.50;18.92;;;-3.90;99.90;;;;;;5094085;28;20043;-74
2021/12/22 03:11:56;;;;;;;34.47;19.08;;;-4.00;99.90;;;;;;5078214;28;20087;-75
2021/12/22 03:14:24;;;;;;;35.55;19.30;;;-3.90;99.90;;;;;;5077679;28;20055;-73
2021/12/22 03:16:51;;;;;;;35.38;19.55;;;-3.90;99.90;;;;;;5077688;28;20075;-73
2021/12/22 03:19:21;;;;;;;32.75;18.85;;;-3.90;99.90;;;;;;5076897;28;20402;-74
2021/12/22 03:21:51;;;;;;;31.73;17.85;;;-3.90;99.90;;;;;;5094550;28;20378;-73
2021/12/22 03:24:19;;;;;;;32.25;17.75;;;-3.90;99.90;;;;;;5077295;28;20039;-73
2021/12/22 03:26:45;;;;;;;34.85;19.05;;;-3.90;99.90;;;;;;5094062;28;20529;-73
2021/12/22 03:29:16;;;;;;;36.17;18.83;;;-4.00;99.90;;;;;;5094015;28;20127;-75
2021/12/22 03:31:43;;;;;;;35.33;18.38;;;-3.90;99.90;;;;;;5076705;28;20040;-74
2021/12/22 03:34:11;;;;;;;39.38;20.23;;;-3.90;99.90;;;;;;5093285;28;20071;-73
2021/12/22 03:36:37;;;;;;;36.15;19.60;;;-4.00;99.90;;;;;;5093894;28;20055;-73
2021/12/22 03:39:05;;;;;;;34.05;18.45;;;-4.00;99.90;;;;;;5090945;28;20119;-72
2021/12/22 03:41:32;;;;;;;36.97;20.42;;;-4.00;99.90;;;;;;5093568;28;20075;-73
2021/12/22 03:43:57;;;;;;;34.47;19.23;;;-4.00;99.90;;;;;;5077146;28;20035;-73
2021/12/22 03:46:23;;;;;;;38.55;19.75;;;-4.00;99.90;;;;;;5076808;28;20423;-73
2021/12/22 03:48:49;;;;;;;34.38;18.60;;;-4.00;99.90;;;;;;5076590;28;20079;-74
2021/12/22 03:51:14;;;;;;;38.78;19.73;;;-4.00;99.90;;;;;;5076296;28;20039;-74
2021/12/22 03:53:40;;;;;;;37.50;18.65;;;-4.00;99.90;;;;;;5093818;28;20776;-74
2021/12/22 03:56:06;;;;;;;36.60;19.25;;;-4.00;99.90;;;;;;5093490;28;20040;-73
2021/12/22 03:58:32;;;;;;;36.47;19.73;;;-4.00;99.90;;;;;;5093968;28;20035;-73
2021/12/22 04:00:58;;;;;;;34.53;19.05;;;-4.00;99.90;;;;;;5076137;28;20185;-75
2021/12/22 04:03:28;;;;;;;38.03;18.08;;;-4.00;99.90;;;;;;5075578;28;20032;-73
2021/12/22 04:05:54;;;;;;;34.70;18.40;;;-4.00;99.90;;;;;;5093112;28;20185;-74
2021/12/22 04:08:20;;;;;;;30.25;17.40;;;-4.00;99.90;;;;;;5077018;28;20495;-75
2021/12/22 04:10:48;;;;;;;33.67;18.45;;;-3.90;99.90;;;;;;5093736;28;20040;-73
2021/12/22 04:13:14;;;;;;;33.35;18.33;;;-3.90;99.90;;;;;;5093088;28;20382;-73
2021/12/22 04:15:41;;;;;;;33.65;18.25;;;-4.00;99.90;;;;;;5076062;28;20051;-73
2021/12/22 04:18:07;;;;;;;31.05;18.35;;;-4.00;99.90;;;;;;5092550;28;20040;-73
2021/12/22 04:20:33;;;;;;;33.85;18.48;;;-4.00;99.90;;;;;;5075376;28;20063;-73
2021/12/22 04:23:00;;;;;;;34.03;18.30;;;-4.00;99.90;;;;;;5076319;28;20122;-72
2021/12/22 04:25:27;;;;;;;37.08;18.83;;;-4.00;99.90;;;;;;5075874;28;20423;-73
2021/12/22 04:28:04;;;;;;;30.58;17.20;;;-4.00;99.90;;;;;;5092229;28;20089;-74
2021/12/22 04:30:36;;;;;;;31.45;17.13;;;-4.10;99.90;;;;;;5092498;28;20044;-73
2021/12/22 04:33:02;;;;;;;35.20;18.13;;;-4.10;99.90;;;;;;5076289;28;20083;-74
2021/12/22 04:35:30;;;;;;;32.28;17.98;;;-4.10;99.90;;;;;;5076243;28;20076;-73
2021/12/22 04:37:56;;;;;;;31.23;17.48;;;-4.10;99.90;;;;;;5092940;28;20036;-74
2021/12/22 04:40:22;;;;;;;31.60;17.80;;;-4.10;99.90;;;;;;5075900;28;20127;-73
2021/12/22 04:42:48;;;;;;;33.30;18.70;;;-4.10;99.90;;;;;;5092534;28;20119;-73
2021/12/22 04:45:15;;;;;;;33.05;18.27;;;-4.20;99.90;;;;;;5075278;28;20035;-74
2021/12/22 04:47:42;;;;;;;33.88;17.65;;;-4.20;99.90;;;;;;5075474;28;20540;-74
2021/12/22 04:50:17;;;;;;;31.70;17.13;;;-4.20;99.90;;;;;;5092531;28;20043;-74
2021/12/22 04:53:00;;;;;;;32.55;17.00;;;-4.20;99.90;;;;;;5091999;28;20040;-74
2021/12/22 04:55:27;;;;;;;36.03;17.63;;;-4.20;99.90;;;;;;5092661;28;20043;-75
2021/12/22 04:57:54;;;;;;;32.72;17.40;;;-4.30;99.90;;;;;;5092289;28;20044;-73
2021/12/22 05:00:21;;;;;;;33.10;17.80;;;-4.30;99.90;;;;;;5075772;28;20463;-73
2021/12/22 05:02:47;;;;;;;32.55;17.85;;;-4.30;99.90;;;;;;5092785;28;20359;-74
2021/12/22 05:05:13;;;;;;;35.10;17.25;;;-4.30;99.90;;;;;;5075674;28;20082;-73
2021/12/22 05:07:39;;;;;;;35.78;17.80;;;-4.30;99.90;;;;;;5092448;28;20071;-74
2021/12/22 05:10:06;;;;;;;35.58;18.30;;;-4.30;99.90;;;;;;5075597;28;20123;-74
2021/12/22 05:12:32;;;;;;;37.33;18.40;;;-4.30;99.90;;;;;;5075273;28;20044;-73
2021/12/22 05:14:57;;;;;;;32.05;18.38;;;-4.30;99.90;;;;;;5092822;28;20036;-75
2021/12/22 05:17:38;;;;;;;34.67;17.33;;;-4.30;99.90;;;;;;5075034;28;20482;-75
2021/12/22 05:20:05;;;;;;;34.83;17.80;;;-4.30;99.90;;;;;;5075535;28;20048;-73
2021/12/22 05:22:31;;;;;;;37.08;18.38;;;-4.30;99.90;;;;;;5092250;28;20046;-74
2021/12/22 05:25:02;;;;;;;37.22;18.95;;;-4.30;99.90;;;;;;5075169;28;20118;-75
2021/12/22 05:27:28;;;;;;;37.40;18.42;;;-4.30;99.90;;;;;;5092260;28;20054;-76
2021/12/22 05:29:54;;;;;;;32.33;18.23;;;-4.30;99.90;;;;;;5092353;28;20032;-75
2021/12/22 05:32:22;;;;;;;34.42;18.63;;;-4.30;99.90;;;;;;5092248;28;20134;-74
2021/12/22 05:34:48;;;;;;;33.13;17.85;;;-4.30;99.90;;;;;;5092236;28;20093;-73
2021/12/22 05:37:13;;;;;;;33.25;17.33;;;-4.30;99.90;;;;;;5092221;28;20040;-74
2021/12/22 05:39:39;;;;;;;34.28;17.38;;;-4.30;99.90;;;;;;5092194;28;20108;-76
2021/12/22 05:42:05;;;;;;;35.22;17.35;;;-4.30;99.90;;;;;;5091734;28;20040;-74
2021/12/22 05:44:31;;;;;;;34.15;16.98;;;-4.30;99.90;;;;;;5092687;28;20040;-76
2021/12/22 05:46:57;;;;;;;35.78;17.30;;;-4.30;99.90;;;;;;5075257;28;20252;-75
2021/12/22 05:49:22;;;;;;;33.70;17.02;;;-4.30;99.90;;;;;;5075247;28;20044;-74
2021/12/22 05:51:48;;;;;;;33.85;16.80;;;-4.30;99.90;;;;;;5092043;28;20047;-74
2021/12/22 05:54:14;;;;;;;34.60;17.40;;;-4.30;99.90;;;;;;5074709;28;20047;-74
2021/12/22 05:56:39;;;;;;;33.53;16.25;;;-4.30;99.90;;;;;;5092063;28;20032;-75
2021/12/22 05:59:05;;;;;;;34.15;17.63;;;-4.30;99.90;;;;;;5091954;28;20046;-75
2021/12/22 06:01:31;;;;;;;33.70;15.90;;;-4.30;99.90;;;;;;5092008;28;20169;-73
2021/12/22 06:03:59;;;;;;;29.00;15.82;;;-4.30;99.90;;;;;;5093411;28;20087;-74
2021/12/22 06:06:26;;;;;;;31.60;17.55;;;-4.30;99.90;;;;;;5095546;28;20547;-74
2021/12/22 06:08:52;;;;;;;31.65;16.73;;;-4.30;99.90;;;;;;5078361;28;20040;-75
2021/12/22 06:11:18;;;;;;;30.48;15.45;;;-4.30;99.90;;;;;;5095466;28;20032;-76
2021/12/22 06:13:44;;;;;;;30.77;15.73;;;-4.30;99.90;;;;;;5078364;28;20040;-73
2021/12/22 06:16:10;;;;;;;29.42;16.17;;;-4.30;99.90;;;;;;5094871;28;20036;-73
2021/12/22 06:18:42;;;;;;;30.00;16.33;;;-4.30;99.90;;;;;;5095102;28;20463;-73
2021/12/22 06:21:08;;;;;;;32.63;17.05;;;-4.30;99.90;;;;;;5077793;28;20051;-76
2021/12/22 06:23:34;;;;;;;31.75;16.60;;;-4.30;99.90;;;;;;5078509;28;20044;-74
2021/12/22 06:26:00;;;;;;;30.25;16.05;;;-4.30;99.90;;;;;;5078626;28;20042;-74
2021/12/22 06:28:25;;;;;;;35.42;16.48;;;-4.30;99.90;;;;;;5078459;28;20086;-75
2021/12/22 06:30:51;;;;;;;31.67;16.85;;;-4.30;99.90;;;;;;5095150;28;20040;-74
2021/12/22 06:33:17;;;;;;;31.90;16.45;;;-4.30;99.90;;;;;;5078243;28;20043;-75
2021/12/22 06:35:42;;;;;;;31.30;16.38;;;-4.30;99.90;;;;;;5094965;28;20047;-75
2021/12/22 06:38:08;;;;;;;37.50;17.23;;;-4.30;99.90;;;;;;5077931;28;20059;-74
2021/12/22 06:40:34;;;;;;;32.55;16.30;;;-4.30;99.90;;;;;;5095223;28;20051;-74
2021/12/22 06:42:59;;;;;;;37.75;17.33;;;-4.40;99.90;;;;;;5077997;28;20390;-74
2021/12/22 06:45:25;;;;;;;32.70;16.58;;;-4.30;99.90;;;;;;5094858;28;20036;-74
2021/12/22 06:47:52;;;;;;;32.70;16.90;;;-4.30;99.90;;;;;;5094688;28;20040;-74
2021/12/22 06:50:21;;;;;;;37.28;17.77;;;-4.40;99.90;;;;;;5128937;27;20076;-76
2021/12/22 06:52:49;;;;;;;32.03;16.55;;;-4.30;99.90;;;;;;5078395;28;20134;-74
2021/12/22 06:55:15;;;;;;;34.72;16.13;;;-4.40;99.90;;;;;;5094694;28;20132;-75
2021/12/22 06:57:41;;;;;;;33.10;16.92;;;-4.30;99.90;;;;;;5094884;28;20047;-74
2021/12/22 07:00:12;;;;;;;32.85;16.70;;;-4.30;99.90;;;;;;5094598;28;20040;-75
2021/12/22 07:02:39;;;;;;;30.35;16.15;;;-4.40;99.90;;;;;;5094549;28;20089;-73
2021/12/22 07:05:06;;;;;;;30.70;16.15;;;-4.30;99.90;;;;;;5077369;28;20092;-75
2021/12/22 07:07:32;;;;;;;32.85;16.13;;;-4.30;99.90;;;;;;5077597;28;20069;-75
2021/12/22 07:09:58;;;;;;;28.65;14.98;;;-4.40;99.90;;;;;;5094264;28;20393;-75
2021/12/22 07:12:24;;;;;;;32.03;15.82;;;-4.40;99.90;;;;;;5094431;28;20048;-75
2021/12/22 07:14:50;;;;;;;33.33;17.25;;;-4.40;99.90;;;;;;5076331;28;20470;-75
2021/12/22 07:17:16;;;;;;;38.40;16.75;;;-4.40;99.90;;;;;;5076885;28;20474;-76
2021/12/22 07:19:42;;;;;;;31.40;15.88;;;-4.40;99.90;;;;;;5093523;28;20081;-77
2021/12/22 07:22:07;;;;;;;31.25;16.27;;;-4.40;99.90;;;;;;5094857;28;20127;-76
2021/12/22 07:24:34;;;;;;;32.58;16.10;;;-4.40;99.90;;;;;;5094630;28;20047;-75
2021/12/22 07:26:59;;;;;;;34.33;17.52;;;-4.40;99.90;;;;;;5077239;28;20474;-75
2021/12/22 07:29:25;;;;;;;31.33;16.10;;;-4.40;99.90;;;;;;5093886;28;20047;-76
2021/12/22 07:31:51;;;;;;;31.95;15.85;;;-4.40;99.90;;;;;;5077150;28;20470;-75
2021/12/22 07:34:27;;;;;;;35.80;16.67;;;-4.50;99.90;;;;;;5076851;28;20497;-75
2021/12/22 07:37:21;;;;;;;33.10;16.50;;;-4.50;99.90;;;;;;5077690;28;20040;-74
2021/12/22 07:39:47;;;;;;;33.22;16.60;;;-4.50;99.90;;;;;;5076590;28;20032;-77
2021/12/22 07:42:13;;;;;;;30.58;16.42;;;-4.50;99.90;;;;;;5076720;28;20036;-75
2021/12/22 07:44:39;;;;;;;34.50;17.25;;;-4.40;99.90;;;;;;5093617;28;20044;-75
2021/12/22 07:47:04;;;;;;;33.80;16.48;;;-4.40;99.90;;;;;;5076717;28;20473;-75
2021/12/22 07:49:30;;;;;;;32.92;17.25;;;-4.40;99.90;;;;;;5094239;28;20074;-75
2021/12/22 07:51:56;;;;;;;31.58;16.50;;;-4.40;99.90;;;;;;5094026;28;20382;-76
2021/12/22 07:54:21;;;;;;;32.85;16.92;;;-4.40;99.90;;;;;;5076649;28;20394;-77
2021/12/22 07:56:47;;;;;;;31.88;16.55;;;-4.40;99.90;;;;;;5093653;28;20032;-76
2021/12/22 07:59:13;;;;;;;32.10;16.00;;;-4.40;99.90;;;;;;5076364;28;20416;-75
2021/12/22 08:01:39;;;;;;;31.00;15.68;;;-4.40;99.90;;;;;;5074384;28;20526;-76
2021/12/22 08:04:04;;;;;;;34.05;17.10;;;-4.30;99.90;;;;;;5075119;28;20078;-75
2021/12/22 08:06:30;;;;;;;32.30;16.27;;;-4.30;99.90;;;;;;5108492;28;20087;-75
2021/12/22 08:08:56;;;;;;;34.85;17.13;;;-4.40;99.90;;;;;;5058852;28;20036;-73
2021/12/22 08:11:21;;;;;;;34.75;16.45;;;-4.30;99.90;;;;;;5109451;28;20409;-74
2021/12/22 08:13:47;;;;;;;33.63;17.08;;;-4.30;99.90;;;;;;5058362;28;20047;-77
2021/12/22 08:16:13;;;;;;;31.48;16.17;;;-4.30;99.90;;;;;;5058492;28;20541;-75
2021/12/22 08:18:39;;;;;;;36.35;16.90;;;-4.20;99.90;;;;;;5058254;28;20043;-74
2021/12/22 08:21:04;;;;;;;31.58;16.65;;;-4.20;99.90;;;;;;5108600;28;20491;-74
2021/12/22 08:23:30;;;;;;;34.13;17.05;;;-4.20;99.90;;;;;;5058079;28;20044;-74
2021/12/22 08:25:56;;;;;;;33.45;17.23;;;-4.10;99.90;;;;;;5074881;28;20046;-75
2021/12/22 08:28:21;;;;;;;31.75;16.20;;;-4.10;99.90;;;;;;5058001;28;20532;-76
2021/12/22 08:30:47;;;;;;;31.65;15.95;;;-4.10;99.90;;;;;;5057876;28;20044;-76
2021/12/22 08:33:26;;;;;;;30.45;15.65;;;-4.00;99.90;;;;;;5075744;28;20052;-76
2021/12/22 08:38:50;;;;;;;35.60;16.50;;;-3.90;99.90;;;;;;5092751;28;20083;-75
2021/12/22 08:41:29;;;;;;;32.85;16.05;;;-3.90;99.90;;;;;;5055992;28;20041;-76
2021/12/22 08:43:57;;;;;;;33.08;16.45;;;-3.80;99.90;;;;;;5106130;28;20512;-73
2021/12/22 08:46:24;;;;;;;32.85;17.42;;;-3.80;99.90;;;;;;5072502;28;20078;-76
2021/12/22 08:48:50;;;;;;;38.90;18.20;;;-3.80;99.90;;;;;;5089419;28;20048;-73
2021/12/22 08:51:16;;;;;;;37.08;18.05;;;-3.80;99.90;;;;;;5072175;28;20036;-74
2021/12/22 08:53:42;;;;;;;36.85;16.70;;;-3.70;99.90;;;;;;5072161;28;20048;-74
2021/12/22 08:56:07;;;;;;;35.63;17.73;;;-3.70;99.90;;;;;;5078003;28;20117;-76
2021/12/22 08:58:34;;;;;;;36.63;17.48;;;-3.70;99.90;;;;;;5092706;28;20052;-73
2021/12/22 09:01:00;;;;;;;38.72;18.55;;;-3.60;99.90;;;;;;5091924;28;20071;-73
2021/12/22 09:03:27;;;;;;;38.63;18.38;;;-3.60;99.90;;;;;;5092455;28;20119;-76
2021/12/22 09:05:53;;;;;;;38.55;18.90;;;-3.50;99.90;;;;;;5075582;28;20040;-74
2021/12/22 09:08:19;;;;;;;45.15;20.27;;;-3.50;99.90;;;;;;5075067;28;20047;-74
2021/12/22 09:10:45;;;;;;;41.95;19.00;;;-3.40;99.90;;;;;;5075841;28;20040;-74
2021/12/22 09:13:12;;;;;;;45.75;20.00;;;-3.40;99.90;;;;;;5075521;28;20044;-74
2021/12/22 09:15:38;;;;;;;39.90;18.95;;;-3.40;99.90;;;;;;5075594;28;20044;-74
2021/12/22 09:18:04;;;;;;;45.08;20.80;;;-3.40;99.90;;;;;;5075238;28;20048;-75
2021/12/22 09:20:30;;;;;;;42.13;20.13;;;-3.30;99.90;;;;;;5092009;28;20059;-75
2021/12/22 09:22:56;;;;;;;45.95;20.92;;;-3.30;99.90;;;;;;5074989;28;20035;-74
2021/12/22 09:25:22;;;;;;;41.33;19.63;;;-3.30;99.90;;;;;;5092611;28;20058;-73
2021/12/22 09:27:47;;;;;;;39.55;18.73;;;-3.20;99.90;;;;;;5092808;28;20130;-75
2021/12/22 09:30:13;;;;;;;40.30;18.73;;;-3.20;99.90;;;;;;5091990;28;20071;-74
2021/12/22 09:32:39;;;;;;;36.28;18.95;;;-3.10;99.90;;;;;;5075355;28;20047;-74
2021/12/22 09:35:05;;;;;;;40.88;19.20;;;-3.10;99.90;;;;;;5075006;28;20044;-74
2021/12/22 09:37:31;;;;;;;40.92;19.70;;;-3.00;99.90;;;;;;5075538;28;20039;-73
2021/12/22 09:39:57;;;;;;;40.55;19.77;;;-3.00;99.90;;;;;;5078352;28;20040;-74
2021/12/22 09:42:23;;;;;;;40.30;19.02;;;-3.00;99.90;;;;;;5079052;28;20040;-74
2021/12/22 09:44:50;;;;;;;41.00;20.05;;;-2.90;99.90;;;;;;5095875;28;20090;-74
2021/12/22 09:47:26;;;;;;;39.25;19.88;;;-2.80;99.90;;;;;;5096021;28;20048;-75
2021/12/22 09:50:38;;;;;;;37.45;19.02;;;-2.80;99.90;;;;;;5096493;28;20417;-75
2021/12/22 09:52:44;;;;;;;43.90;19.42;;;-2.70;99.90;;;;;;5092007;28;20054;-73
2021/12/22 09:55:11;;;;;;;39.58;19.35;;;-2.70;99.90;;;;;;5078104;28;20036;-74
2021/12/22 09:57:37;;;;;;;36.22;19.30;;;-2.60;99.90;;;;;;5095645;28;20050;-73
2021/12/22 10:00:08;;;;;;;37.58;18.73;;;-2.50;99.90;;;;;;5094363;28;20130;-74
2021/12/22 10:02:33;;;;;;;36.95;20.10;;;-2.50;99.90;;;;;;5096128;28;20136;-74
2021/12/22 10:05:01;;;;;;;37.08;19.70;;;-2.50;99.90;;;;;;5095697;28;20071;-77
2021/12/22 10:07:30;;;;;;;36.72;19.65;;;-2.40;99.90;;;;;;5095571;28;20050;-76
2021/12/22 10:10:07;;;;;;;38.08;19.27;;;-2.30;99.90;;;;;;5078431;28;20126;-74
2021/12/22 10:12:32;;;;;;;36.38;18.42;;;-2.30;99.90;;;;;;5095640;28;20486;-75
2021/12/22 10:15:00;;;;;;;36.92;18.60;;;-2.20;99.90;;;;;;5078536;28;20136;-74
2021/12/22 10:17:27;;;;;;;41.53;20.45;;;-2.10;99.90;;;;;;5078465;28;20044;-74
2021/12/22 10:19:59;;;;;;;42.45;19.90;;;-2.00;99.90;;;;;;5095370;28;20058;-76
2021/12/22 10:22:34;;;;;;;38.72;20.20;;;-1.90;99.90;;;;;;5077690;28;20040;-74
2021/12/22 10:25:04;;;;;;;35.20;18.63;;;-1.80;99.90;;;;;;5078293;28;20059;-74
2021/12/22 10:27:30;;;;;;;37.90;19.10;;;-1.70;99.90;;;;;;5095844;28;20040;-74
2021/12/22 10:29:55;;;;;;;36.47;19.10;;;-1.60;99.90;;;;;;5095235;28;20040;-74
2021/12/22 10:32:21;;;;;;;38.25;18.52;;;-1.50;99.90;;;;;;5095335;28;20085;-74
2021/12/22 10:35:00;;;;;;;34.58;18.75;;;-1.30;99.90;;;;;;5078229;28;20082;-74
2021/12/22 10:37:32;;;;;;;35.90;19.33;;;-1.00;99.90;;;;;;5095912;28;20039;-76
2021/12/22 10:39:57;;;;;;;36.03;18.17;;;-0.70;99.90;;;;;;5092201;28;20037;-73
2021/12/22 10:42:39;;;;;;;33.28;17.80;;;-0.50;99.90;;;;;;5094838;28;20043;-74
2021/12/22 10:45:12;;;;;;;32.05;17.83;;;-0.40;99.90;;;;;;5063213;28;20040;-75
2021/12/22 10:50:34;;;;;;;35.10;18.50;;;-0.40;99.90;;;;;;5128367;27;20097;-75
2021/12/22 10:53:00;;;;;;;35.03;18.38;;;-0.50;99.90;;;;;;5077711;28;20467;-74
2021/12/22 10:55:42;;;;;;;34.10;18.05;;;-0.50;99.90;;;;;;5094257;28;20032;-73
2021/12/22 10:58:23;;;;;;;32.58;17.45;;;-0.50;99.90;;;;;;5094248;28;20031;-76
2021/12/22 11:01:16;;;;;;;34.63;18.60;;;-0.50;99.90;;;;;;5094581;28;20048;-77
2021/12/22 11:03:53;;;;;;;33.35;17.67;;;-0.60;99.90;;;;;;5093840;28;20036;-74
2021/12/22 11:06:24;;;;;;;38.88;19.90;;;-0.60;99.90;;;;;;5093984;28;20044;-76
2021/12/22 11:09:13;;;;;;;33.10;17.25;;;-0.50;99.90;;;;;;5094239;28;20032;-75
2021/12/22 11:11:40;;;;;;;34.95;18.42;;;-0.50;99.90;;;;;;5077427;28;20044;-74
2021/12/22 11:14:19;;;;;;;36.70;18.27;;;-0.50;99.90;;;;;;5077177;28;20054;-76
2021/12/22 11:16:58;;;;;;;31.03;17.30;;;-0.40;99.90;;;;;;5093479;28;20143;-72
2021/12/22 11:19:30;;;;;;;35.53;18.10;;;-0.20;99.90;;;;;;5092803;28;20302;-73
2021/12/22 11:22:07;;;;;;;33.92;18.08;;;0.10;99.90;;;;;;5076050;28;20047;-73
2021/12/22 11:24:36;;;;;;;30.27;17.23;;;0.20;99.90;;;;;;5093714;28;20048;-73
2021/12/22 11:27:02;;;;;;;;;;;0.20;99.90;;;;;;5077031;28;20043;-73
2021/12/22 11:29:28;;;;;;;30.80;17.05;;;0.30;99.90;;;;;;5077018;28;20010;-73
2021/12/22 11:31:54;;;;;;;31.17;16.23;;;0.20;99.90;;;;;;5093666;28;20132;-76
2021/12/22 11:34:22;;;;;;;30.75;17.15;;;0.30;99.90;;;;;;5093805;28;20076;-73
2021/12/22 11:36:50;;;;;;;33.50;16.73;;;0.40;99.90;;;;;;5093049;28;20035;-76
2021/12/22 11:39:17;;;;;;;29.47;15.50;;;0.50;99.90;;;;;;5093328;28;20043;-71
2021/12/22 11:41:54;;;;;;;29.27;16.30;;;0.50;99.90;;;;;;5075711;28;20050;-75
2021/12/22 11:44:20;;;;;;;28.50;16.15;;;0.60;99.90;;;;;;5092726;28;20094;-72
2021/12/22 11:46:46;;;;;;;27.25;15.23;;;0.70;99.90;;;;;;5092246;28;20032;-72
2021/12/22 11:49:12;;;;;;;25.08;15.13;;;0.80;99.90;;;;;;5093281;28;20032;-74
2021/12/22 11:51:38;;;;;;;28.15;14.93;;;0.70;99.90;;;;;;5127020;27;20150;-71
2021/12/22 11:54:09;;;;;;;25.67;15.00;;;0.70;99.90;;;;;;5076156;28;20032;-72
2021/12/22 11:56:42;;;;;;;25.15;14.77;;;0.70;99.90;;;;;;5075414;28;20512;-76
2021/12/22 11:59:27;;;;;;;27.40;14.43;;;0.70;99.90;;;;;;5092181;28;20127;-72
2021/12/22 12:02:23;;;;;;;26.35;13.80;;;0.70;99.90;;;;;;5091117;28;20083;-72
2021/12/22 12:04:52;;;;;;;28.20;15.55;;;0.70;99.90;;;;;;5068835;28;20130;-72
2021/12/22 12:07:56;;;;;;;26.83;15.48;;;0.70;99.90;;;;;;5075228;28;20156;-72
2021/12/22 12:10:42;;;;;;;28.55;15.88;;;0.80;99.90;;;;;;5091684;28;20075;-75
2021/12/22 12:13:22;;;;;;;26.20;15.80;;;1.00;99.90;;;;;;5071522;28;20048;-72
2021/12/22 12:22:23;;;;;;;27.05;15.27;;;1.30;99.90;;;;;;4994006;28;20054;-72
2021/12/22 12:25:12;;;;;;;25.75;13.68;;;1.30;99.90;;;;;;5051398;28;20056;-72
2021/12/22 12:27:51;;;;;;;23.73;14.25;;;1.40;99.90;;;;;;5054890;28;20481;-75
2021/12/22 12:30:25;;;;;;;26.42;13.75;;;1.50;99.90;;;;;;5087511;28;20089;-72
2021/12/22 12:32:52;;;;;;;25.83;14.05;;;1.60;99.90;;;;;;5054576;28;20173;-72
2021/12/22 12:35:23;;;;;;;25.40;13.82;;;1.70;99.90;;;;;;5071088;28;20040;-75
2021/12/22 12:38:08;;;;;;;25.35;14.18;;;1.70;99.90;;;;;;5070897;28;20044;-75
2021/12/22 12:41:02;;;;;;;23.98;14.00;;;1.70;99.90;;;;;;5122633;27;20088;-73
2021/12/22 12:43:46;;;;;;;27.42;13.82;;;1.70;99.90;;;;;;5090940;28;20381;-72
2021/12/22 12:46:24;;;;;;;25.27;13.60;;;1.80;99.90;;;;;;5090531;28;20044;-72
2021/12/22 12:48:52;;;;;;;27.40;15.18;;;2.00;99.90;;;;;;5074438;28;20085;-72
2021/12/22 12:51:32;;;;;;;24.40;14.15;;;2.00;99.90;;;;;;5091364;28;20036;-75
2021/12/22 12:54:16;;;;;;;28.38;14.98;;;1.90;99.90;;;;;;5091208;28;20044;-72
2021/12/22 12:56:47;;;;;;;28.10;13.75;;;1.80;99.90;;;;;;5090239;28;20044;-73
2021/12/22 12:59:26;;;;;;;24.77;14.80;;;1.70;99.90;;;;;;5090729;28;20032;-73